Pittsburgh, Pennsylvania
Traffic Map
Current Weather Conditions
Pittsburgh, Pennsylvania
Broken Clouds
Broken Clouds
22°
Feels Like: 22°
Wind Chill: 22° Ceiling: 12000
Heat Index: 22° Visibility: 9mi
Dew Point: 17° Wind: 3mph
Humidity: 75% Direction: 120° (ESE)
Pressure: 29.95in Gusts: 0mph
Raw Report DataKAGC 300653Z 12003KT 9SM FEW065 BKN120 22/17 A2995 RMK AO2 SLP138 T02170172
Traffic Incident Summary
Active as of:
Severity:
Category:
InformationThere was an issue retrieving the traffic information for this location. Please try a different location or try again shortly.
Advertisements
Track Severe Weather on mobile